createdAt,value
2019-06-26T00:03:26.528Z,80.80
2019-06-26T00:08:29.962Z,81.20
2019-06-26T00:13:33.385Z,81.00
2019-06-26T00:18:36.816Z,81.00
2019-06-26T00:23:40.245Z,81.60
2019-06-26T00:28:43.666Z,81.90
2019-06-26T00:33:47.101Z,82.20
2019-06-26T00:38:50.560Z,82.20
2019-06-26T00:43:54.029Z,83.20
2019-06-26T00:48:57.473Z,83.60
2019-06-26T00:54:00.881Z,83.70
2019-06-26T00:59:04.381Z,84.10
2019-06-26T01:04:15.496Z,83.80
2019-06-26T01:09:18.928Z,84.80
2019-06-26T01:14:22.348Z,84.70
2019-06-26T01:19:25.781Z,84.60
2019-06-26T01:24:29.569Z,85.20
2019-06-26T01:29:33.008Z,86.20
2019-06-26T01:34:36.419Z,86.50
2019-06-26T01:39:39.840Z,87.80
2019-06-26T01:44:43.265Z,88.30
2019-06-26T01:49:46.672Z,89.10
2019-06-26T01:54:50.100Z,89.50
2019-06-26T01:59:53.508Z,90.00
2019-06-26T02:04:56.939Z,90.60
2019-06-26T02:10:00.348Z,90.60
2019-06-26T02:15:06.184Z,91.10
2019-06-26T02:20:09.741Z,91.20
2019-06-26T02:25:13.236Z,91.40
2019-06-26T02:30:16.815Z,91.20
2019-06-26T02:35:20.242Z,91.80
2019-06-26T02:40:23.793Z,92.30
2019-06-26T02:45:27.223Z,92.60
2019-06-26T02:50:30.631Z,92.70
2019-06-26T02:55:34.194Z,92.70
2019-06-26T03:00:37.613Z,93.40
2019-06-26T03:05:41.035Z,93.10
2019-06-26T03:10:44.458Z,93.00
2019-06-26T03:15:50.450Z,93.10
2019-06-26T03:20:57.778Z,93.50
2019-06-26T03:26:01.187Z,94.00
2019-06-26T03:31:05.161Z,93.70
2019-06-26T03:36:08.806Z,93.20
2019-06-26T03:41:12.231Z,92.70
2019-06-26T03:46:15.887Z,92.70
2019-06-26T03:51:19.303Z,92.00
2019-06-26T03:56:22.745Z,92.10
2019-06-26T04:01:26.222Z,91.80
2019-06-26T04:06:29.651Z,91.10
2019-06-26T04:11:33.063Z,90.90
2019-06-26T04:16:36.483Z,90.80
2019-06-26T04:21:39.908Z,87.20
2019-06-26T04:26:43.321Z,84.80
2019-06-26T04:31:46.740Z,82.60
2019-06-26T04:36:50.169Z,80.60
2019-06-26T04:41:53.588Z,79.70
2019-06-26T04:46:56.999Z,78.30
2019-06-26T04:52:00.427Z,77.40
2019-06-26T04:57:04.317Z,76.80
2019-06-26T05:02:07.744Z,75.80
2019-06-26T05:07:11.147Z,76.00
2019-06-26T05:12:14.632Z,73.50
2019-06-26T05:17:18.061Z,72.60
2019-06-26T05:22:21.539Z,70.40
2019-06-26T05:27:24.966Z,70.30
2019-06-26T05:32:28.388Z,69.90
2019-06-26T05:37:31.803Z,69.70
2019-06-26T05:42:35.225Z,68.20
2019-06-26T05:47:38.955Z,66.90
2019-06-26T05:52:43.155Z,64.50
2019-06-26T05:57:48.551Z,65.20
2019-06-26T06:02:54.025Z,64.30
2019-06-26T06:07:57.509Z,62.80
2019-06-26T06:13:00.952Z,62.90
2019-06-26T06:18:04.363Z,64.10
2019-06-26T06:23:07.801Z,62.60
2019-06-26T06:28:11.218Z,61.20
2019-06-26T06:33:14.631Z,59.70
2019-06-26T06:38:18.048Z,60.80
2019-06-26T06:43:21.708Z,60.70
2019-06-26T06:48:25.177Z,61.60
2019-06-26T06:53:28.679Z,60.30
2019-06-26T06:58:32.112Z,59.80
2019-06-26T07:03:35.595Z,61.90
2019-06-26T07:08:39.028Z,61.70
2019-06-26T07:13:42.453Z,63.50
2019-06-26T07:18:45.952Z,63.30
2019-06-26T07:23:49.362Z,62.90
2019-06-26T07:28:52.823Z,61.30
2019-06-26T07:33:56.284Z,65.20
2019-06-26T07:38:59.744Z,65.80
2019-06-26T07:44:03.210Z,63.90
2019-06-26T07:49:06.663Z,66.30
2019-06-26T07:54:10.078Z,65.30
2019-06-26T07:59:13.514Z,66.20
2019-06-26T08:04:16.932Z,68.50
2019-06-26T08:09:20.428Z,71.00
2019-06-26T08:14:23.856Z,72.30
2019-06-26T08:19:27.289Z,73.60
2019-06-26T08:24:30.707Z,75.50
2019-06-26T08:29:34.324Z,76.60
2019-06-26T08:34:37.743Z,78.70
2019-06-26T08:39:41.188Z,80.30
2019-06-26T08:44:44.629Z,80.50
2019-06-26T08:49:48.067Z,79.90
2019-06-26T08:54:51.506Z,79.80
2019-06-26T08:59:55.080Z,79.20
2019-06-26T09:04:58.511Z,78.70
2019-06-26T09:10:02.078Z,76.70
2019-06-26T09:15:09.527Z,74.60
2019-06-26T09:20:15.659Z,75.20
2019-06-26T09:25:22.213Z,73.80
2019-06-26T09:30:24.604Z,70.70
2019-06-26T09:35:28.068Z,66.40
2019-06-26T09:40:32.236Z,63.80
2019-06-26T09:45:35.957Z,64.50
2019-06-26T09:50:39.371Z,61.20
2019-06-26T09:55:42.803Z,58.90
2019-06-26T10:00:46.216Z,61.60
2019-06-26T10:05:49.640Z,58.60
2019-06-26T10:10:53.237Z,58.50
2019-06-26T10:16:00.324Z,59.80
2019-06-26T10:21:01.916Z,58.90
2019-06-26T10:26:06.518Z,58.60
2019-06-26T10:31:10.296Z,54.60
2019-06-26T10:36:13.872Z,55.30
2019-06-26T10:41:17.304Z,54.70
2019-06-26T10:46:20.735Z,56.50
2019-06-26T10:51:24.151Z,57.50
2019-06-26T10:56:28.812Z,57.50
2019-06-26T11:01:32.376Z,57.30
2019-06-26T11:06:37.163Z,56.70
2019-06-26T11:11:40.867Z,55.60
2019-06-26T11:16:44.280Z,55.10
2019-06-26T11:21:47.692Z,56.00
2019-06-26T11:26:51.118Z,56.20
2019-06-26T11:31:54.804Z,55.70
2019-06-26T11:37:03.631Z,56.10
2019-06-26T11:42:03.436Z,57.20
2019-06-26T11:47:06.855Z,56.70
2019-06-26T11:52:10.545Z,58.10
2019-06-26T11:57:13.944Z,59.40
2019-06-26T12:02:17.461Z,58.50
2019-06-26T12:07:20.975Z,60.50
2019-06-26T12:12:24.389Z,61.80
2019-06-26T12:17:27.807Z,63.20
2019-06-26T12:22:31.237Z,62.70
2019-06-26T12:27:34.743Z,63.10
2019-06-26T12:32:42.163Z,62.50
2019-06-26T12:37:43.321Z,63.60
2019-06-26T12:42:47.026Z,63.30
2019-06-26T12:47:50.434Z,64.00
2019-06-26T12:52:53.851Z,63.20
2019-06-26T12:58:11.897Z,61.80
2019-06-26T13:03:02.455Z,62.10
2019-06-26T13:08:05.935Z,61.60
2019-06-26T13:13:09.349Z,65.50
2019-06-26T13:18:12.785Z,67.60
2019-06-26T13:23:16.707Z,67.20
2019-06-26T13:28:20.144Z,68.30
2019-06-26T13:33:23.561Z,67.20
2019-06-26T13:38:27.385Z,66.90
2019-06-26T13:43:30.855Z,66.00
2019-06-26T13:48:34.275Z,66.10
2019-06-26T13:53:37.688Z,65.60
2019-06-26T13:58:41.100Z,64.90
2019-06-26T14:03:44.595Z,66.00
2019-06-26T14:08:48.016Z,65.80
2019-06-26T14:13:51.439Z,66.20
2019-06-26T14:18:54.843Z,65.60
2019-06-26T14:23:58.252Z,66.30
2019-06-26T14:29:01.666Z,67.30
2019-06-26T14:34:05.336Z,68.60
2019-06-26T14:39:09.552Z,69.50
2019-06-26T14:44:13.124Z,70.40
2019-06-26T14:49:16.629Z,70.10
2019-06-26T14:54:20.064Z,69.50
2019-06-26T14:59:25.017Z,69.50
2019-06-26T15:04:28.479Z,68.90
2019-06-26T15:09:31.890Z,68.30
2019-06-26T15:14:35.355Z,69.10
2019-06-26T15:19:38.897Z,70.40
2019-06-26T15:24:42.337Z,71.30
2019-06-26T15:29:46.375Z,70.80
2019-06-26T15:39:22.416Z,68.40
2019-06-26T15:44:26.134Z,68.90
2019-06-26T15:49:29.532Z,68.90
2019-06-26T15:54:33.015Z,68.80
2019-06-26T15:59:36.423Z,69.30
2019-06-26T16:04:39.888Z,69.40
2019-06-26T16:09:43.312Z,69.80
2019-06-26T16:14:46.799Z,69.30
2019-06-26T16:19:50.272Z,69.90
2019-06-26T16:24:53.987Z,70.20
2019-06-26T16:29:57.515Z,70.60
2019-06-26T16:35:01.019Z,69.70
2019-06-26T16:40:06.389Z,69.30
2019-06-26T16:45:10.158Z,69.10
2019-06-26T16:50:14.165Z,69.20
2019-06-26T16:55:18.371Z,68.40
2019-06-26T17:00:22.672Z,70.60
2019-06-26T17:05:27.079Z,71.20
2019-06-26T17:10:32.366Z,70.50
2019-06-26T17:15:35.809Z,70.60
2019-06-26T17:20:40.112Z,69.80
2019-06-26T17:25:43.540Z,70.10
2019-06-26T17:30:46.954Z,70.80
2019-06-26T17:35:50.674Z,72.00
2019-06-26T17:40:54.148Z,72.30
2019-06-26T17:45:57.556Z,72.10
2019-06-26T17:51:01.287Z,72.00
2019-06-26T17:56:04.995Z,72.60
2019-06-26T18:01:08.400Z,73.30
2019-06-26T18:06:11.811Z,74.60
2019-06-26T18:11:15.225Z,74.70
2019-06-26T18:16:18.713Z,75.30
2019-06-26T18:21:22.138Z,76.20
2019-06-26T18:26:25.545Z,76.50
2019-06-26T18:31:30.632Z,76.70
2019-06-26T18:36:34.100Z,76.40
2019-06-26T18:41:37.608Z,75.80
2019-06-26T18:46:41.035Z,77.20
2019-06-26T18:51:44.459Z,77.50
2019-06-26T18:56:47.867Z,77.50
2019-06-26T19:01:51.282Z,78.60
2019-06-26T19:06:54.717Z,79.30
2019-06-26T19:11:58.127Z,77.70
2019-06-26T19:17:01.771Z,78.10
2019-06-26T19:22:05.298Z,80.20
2019-06-26T19:27:08.869Z,80.00
2019-06-26T19:32:12.637Z,81.00
2019-06-26T19:37:16.105Z,80.80
2019-06-26T19:42:19.531Z,81.80
2019-06-26T19:47:23.079Z,82.20
2019-06-26T19:52:26.505Z,83.00
2019-06-26T19:57:29.916Z,83.00
2019-06-26T20:02:33.343Z,82.60
2019-06-26T20:07:36.755Z,83.80
2019-06-26T20:12:40.167Z,84.40
2019-06-26T20:17:43.844Z,85.20
2019-06-26T20:22:47.287Z,85.90
2019-06-26T20:27:56.665Z,86.70
2019-06-26T20:32:55.960Z,87.60
2019-06-26T20:37:59.372Z,88.10
2019-06-26T20:43:03.129Z,88.00
2019-06-26T20:48:06.540Z,88.40
2019-06-26T20:53:09.952Z,89.70
2019-06-26T20:58:13.375Z,89.00
2019-06-26T21:03:16.787Z,89.10
2019-06-26T21:08:20.208Z,89.70
2019-06-26T21:13:23.800Z,90.40
2019-06-26T21:19:55.287Z,90.70
2019-06-26T21:24:58.693Z,91.70
2019-06-26T21:30:02.189Z,91.00
2019-06-26T21:35:06.502Z,90.50
2019-06-26T21:40:10.534Z,89.70
2019-06-26T21:45:14.815Z,89.10
2019-06-26T21:50:18.231Z,89.50
2019-06-26T21:55:33.887Z,89.30
2019-06-26T22:00:28.602Z,88.60
2019-06-26T22:05:32.087Z,89.30
2019-06-26T22:10:35.665Z,90.20
2019-06-26T22:15:39.084Z,90.00
2019-06-26T22:20:42.630Z,89.40
2019-06-26T22:25:50.905Z,89.90
2019-06-26T22:30:51.212Z,89.90
2019-06-26T22:35:54.618Z,90.00
2019-06-26T22:40:58.228Z,88.60
2019-06-26T22:46:01.655Z,89.10
2019-06-26T22:51:05.164Z,89.20
2019-06-26T22:56:08.600Z,89.80
2019-06-26T23:01:12.080Z,89.70
2019-06-26T23:06:15.500Z,88.50
2019-06-26T23:11:19.021Z,88.20
2019-06-26T23:16:22.469Z,88.60
2019-06-26T23:21:25.904Z,88.10
2019-06-26T23:26:29.338Z,89.00
2019-06-26T23:31:32.757Z,88.40
2019-06-26T23:36:36.188Z,88.50
2019-06-26T23:41:39.608Z,88.80
2019-06-26T23:46:43.030Z,89.00
2019-06-26T23:51:46.457Z,87.70
2019-06-26T23:56:49.957Z,88.20
